createdAt,value
2019-05-22T00:00:46.670Z,99.91
2019-05-22T00:03:18.984Z,98.97
2019-05-22T00:05:50.064Z,98.22
2019-05-22T00:08:20.469Z,99.20
2019-05-22T00:10:50.610Z,99.22
2019-05-22T00:13:23.046Z,100.00
2019-05-22T00:15:54.594Z,99.62
2019-05-22T00:18:26.070Z,99.25
2019-05-22T00:20:57.297Z,99.65
2019-05-22T00:23:28.572Z,99.89
2019-05-22T00:25:58.580Z,99.32
2019-05-22T00:28:31.130Z,100.00
2019-05-22T00:31:02.233Z,99.36
2019-05-22T00:33:36.097Z,100.00
2019-05-22T00:36:04.610Z,100.00
2019-05-22T00:38:36.380Z,100.00
2019-05-22T00:41:07.829Z,99.69
2019-05-22T00:43:42.524Z,98.07
2019-05-22T00:46:16.922Z,99.74
2019-05-22T00:48:48.070Z,100.00
2019-05-22T00:51:42.240Z,100.00
2019-05-22T00:54:22.013Z,99.86
2019-05-22T00:57:17.090Z,100.00
2019-05-22T00:59:48.714Z,99.42
2019-05-22T01:02:21.498Z,99.99
2019-05-22T01:04:54.307Z,99.21
2019-05-22T01:07:30.306Z,99.22
2019-05-22T01:10:02.378Z,99.27
2019-05-22T01:12:38.086Z,98.87
2019-05-22T01:15:08.976Z,100.00
2019-05-22T01:17:40.651Z,100.00
2019-05-22T01:20:14.569Z,100.00
2019-05-22T01:22:47.443Z,100.00
2019-05-22T01:25:22.029Z,100.00
2019-05-22T01:27:52.569Z,100.00
2019-05-22T01:30:31.472Z,100.00
2019-05-22T01:33:03.998Z,100.00
2019-05-22T01:35:36.691Z,100.00
2019-05-22T01:38:07.154Z,100.00
2019-05-22T01:40:43.007Z,100.00
2019-05-22T01:43:17.565Z,99.98
2019-05-22T01:45:55.115Z,100.00
2019-05-22T01:48:31.618Z,100.00
2019-05-22T01:51:03.728Z,100.00
2019-05-22T01:53:38.451Z,100.00
2019-05-22T01:56:11.606Z,100.00
2019-05-22T01:58:43.726Z,100.00
2019-05-22T02:01:19.873Z,100.00
2019-05-22T02:03:52.070Z,100.00
2019-05-22T02:06:24.942Z,100.00
2019-05-22T02:09:16.789Z,100.00
2019-05-22T02:11:49.518Z,99.62
2019-05-22T02:14:22.320Z,100.00
2019-05-22T02:16:57.063Z,99.66
2019-05-22T02:19:25.546Z,100.00
2019-05-22T02:21:56.188Z,100.00
2019-05-22T02:24:26.234Z,100.00
2019-05-22T02:26:56.907Z,100.00
2019-05-22T02:29:28.505Z,100.00
2019-05-22T02:31:58.914Z,100.00
2019-05-22T02:34:28.979Z,100.00
2019-05-22T02:36:59.344Z,100.00
2019-05-22T02:39:30.532Z,99.66
2019-05-22T02:42:06.519Z,100.00
2019-05-22T02:44:37.228Z,100.00
2019-05-22T02:47:19.199Z,100.00
2019-05-22T02:49:41.229Z,100.00
2019-05-22T02:52:13.414Z,100.00
2019-05-22T02:54:44.256Z,100.00
2019-05-22T02:57:14.744Z,100.00
2019-05-22T02:59:45.687Z,99.45
2019-05-22T03:02:16.270Z,100.00
2019-05-22T03:05:00.379Z,100.00
2019-05-22T03:07:31.703Z,99.47
2019-05-22T03:10:02.468Z,100.00
2019-05-22T03:12:35.384Z,100.00
2019-05-22T03:15:08.870Z,99.73
2019-05-22T03:17:40.855Z,99.89
2019-05-22T03:20:14.145Z,98.86
2019-05-22T03:23:08.148Z,98.69
2019-05-22T03:25:38.958Z,99.36
2019-05-22T03:28:09.877Z,99.18
2019-05-22T03:30:42.001Z,99.21
2019-05-22T03:33:12.013Z,100.00
2019-05-22T03:35:44.398Z,99.13
2019-05-22T03:38:15.984Z,99.44
2019-05-22T03:40:46.441Z,99.58
2019-05-22T03:43:21.180Z,99.73
2019-05-22T03:45:52.035Z,99.54
2019-05-22T03:48:22.507Z,99.56
2019-05-22T03:50:56.256Z,99.24
2019-05-22T03:53:27.185Z,99.24
2019-05-22T03:55:57.336Z,98.96
2019-05-22T03:58:28.898Z,100.00
2019-05-22T04:01:02.670Z,99.13
2019-05-22T04:03:33.066Z,98.71
2019-05-22T04:06:04.434Z,98.71
2019-05-22T04:08:34.638Z,99.26
2019-05-22T04:11:07.569Z,100.00
2019-05-22T04:13:37.635Z,100.00
2019-05-22T04:16:09.621Z,100.00
2019-05-22T04:18:40.720Z,99.21
2019-05-22T04:21:11.193Z,98.91
2019-05-22T04:23:41.720Z,99.27
2019-05-22T04:26:13.861Z,98.32
2019-05-22T04:28:54.057Z,98.70
2019-05-22T04:31:51.562Z,99.51
2019-05-22T04:34:21.752Z,97.87
2019-05-22T04:36:51.913Z,98.88
2019-05-22T04:39:24.217Z,98.86
2019-05-22T04:41:55.540Z,99.07
2019-05-22T04:44:26.372Z,100.00
2019-05-22T04:46:57.181Z,99.47
2019-05-22T04:49:27.462Z,100.00
2019-05-22T04:51:57.956Z,100.00
2019-05-22T04:54:27.959Z,100.00
2019-05-22T04:56:57.985Z,99.49
2019-05-22T04:59:27.984Z,99.50
2019-05-22T05:01:58.486Z,99.67
2019-05-22T05:04:29.457Z,99.98
2019-05-22T05:06:59.828Z,99.72
2019-05-22T05:09:29.818Z,99.38
2019-05-22T05:11:59.980Z,99.76
2019-05-22T05:14:30.511Z,100.00
2019-05-22T05:17:00.676Z,99.51
2019-05-22T05:19:32.312Z,99.96
2019-05-22T05:22:03.238Z,99.35
2019-05-22T05:24:33.210Z,99.75
2019-05-22T05:27:05.435Z,100.00
2019-05-22T05:29:35.478Z,100.00
2019-05-22T05:32:06.056Z,100.00
2019-05-22T05:34:47.853Z,100.00
2019-05-22T05:37:20.224Z,100.00
2019-05-22T05:40:29.193Z,100.00
2019-05-22T05:42:59.821Z,100.00
2019-05-22T05:45:32.731Z,100.00
2019-05-22T05:48:05.432Z,100.00
2019-05-22T05:50:39.953Z,100.00
2019-05-22T05:53:14.094Z,100.00
2019-05-22T05:56:19.486Z,100.00
2019-05-22T05:58:49.677Z,100.00
2019-05-22T06:01:27.209Z,100.00
2019-05-22T06:03:58.801Z,99.75
2019-05-22T06:07:13.512Z,99.78
2019-05-22T06:09:44.810Z,100.00
2019-05-22T06:12:15.872Z,100.00
2019-05-22T06:14:46.951Z,100.00
2019-05-22T06:17:54.490Z,100.00
2019-05-22T06:20:25.082Z,100.00
2019-05-22T06:23:46.074Z,100.00
2019-05-22T06:27:07.286Z,100.00
2019-05-22T06:29:52.970Z,99.92
2019-05-22T06:33:01.428Z,100.00
2019-05-22T06:35:35.234Z,99.50
2019-05-22T06:38:17.397Z,99.50
2019-05-22T06:40:47.391Z,99.82
2019-05-22T06:43:57.667Z,100.00
2019-05-22T06:46:47.483Z,99.60
2019-05-22T06:49:49.172Z,99.51
2019-05-22T06:52:19.286Z,99.85
2019-05-22T06:54:49.760Z,100.00
2019-05-22T06:57:25.100Z,99.90
2019-05-22T07:00:13.426Z,100.00
2019-05-22T07:02:33.881Z,100.00
2019-05-22T07:05:05.813Z,100.00
2019-05-22T07:07:35.812Z,100.00
2019-05-22T07:10:08.353Z,100.00
2019-05-22T07:12:39.306Z,99.99
2019-05-22T07:15:41.978Z,100.00
2019-05-22T07:18:13.661Z,100.00
2019-05-22T07:20:44.710Z,100.00
2019-05-22T07:23:20.618Z,99.75
2019-05-22T07:25:52.365Z,100.00
2019-05-22T07:28:23.266Z,99.88
2019-05-22T07:30:53.749Z,99.88
2019-05-22T07:33:24.566Z,100.00
2019-05-22T07:36:09.171Z,100.00
2019-05-22T07:38:26.911Z,99.04
2019-05-22T07:40:56.947Z,99.66
2019-05-22T07:43:27.127Z,99.60
2019-05-22T07:45:57.839Z,98.42
2019-05-22T07:48:31.006Z,98.95
2019-05-22T07:51:01.427Z,99.74
2019-05-22T07:53:31.512Z,98.89
2019-05-22T07:56:05.452Z,97.91
2019-05-22T07:58:35.910Z,99.87
2019-05-22T08:01:06.448Z,99.93
2019-05-22T08:03:37.001Z,100.00
2019-05-22T08:06:08.440Z,100.00
2019-05-22T08:08:38.747Z,98.97
2019-05-22T08:11:10.660Z,99.22
2019-05-22T08:13:40.998Z,99.22
2019-05-22T08:16:11.083Z,99.37
2019-05-22T08:18:41.469Z,98.99
2019-05-22T08:21:11.885Z,98.36
2019-05-22T08:23:42.203Z,98.69
2019-05-22T08:26:14.857Z,98.32
2019-05-22T08:28:44.813Z,99.86
2019-05-22T08:31:15.902Z,99.26
2019-05-22T08:33:45.969Z,99.34
2019-05-22T08:36:16.081Z,98.69
2019-05-22T08:38:46.303Z,98.49
2019-05-22T08:41:19.379Z,98.23
2019-05-22T08:44:13.850Z,98.58
2019-05-22T08:46:21.479Z,98.52
2019-05-22T08:48:51.469Z,98.49
2019-05-22T08:51:21.725Z,98.24
2019-05-22T08:53:53.211Z,97.90
2019-05-22T08:56:24.682Z,98.16
2019-05-22T08:58:55.141Z,98.91
2019-05-22T09:01:25.289Z,98.24
2019-05-22T09:03:55.413Z,97.12
2019-05-22T09:06:25.464Z,97.60
2019-05-22T09:08:55.526Z,97.17
2019-05-22T09:11:25.498Z,97.17
2019-05-22T09:13:55.571Z,96.85
2019-05-22T09:16:25.905Z,97.37
2019-05-22T09:18:55.918Z,96.90
2019-05-22T09:21:27.074Z,96.90
2019-05-22T09:23:57.168Z,96.57
2019-05-22T09:26:27.484Z,96.62
2019-05-22T09:28:57.503Z,96.82
2019-05-22T09:31:27.468Z,96.82
2019-05-22T09:33:57.457Z,95.76
2019-05-22T09:36:27.921Z,96.13
2019-05-22T09:38:57.914Z,95.65
2019-05-22T09:41:27.927Z,96.27
2019-05-22T09:43:57.938Z,95.88
2019-05-22T09:46:29.086Z,95.65
2019-05-22T09:48:59.565Z,95.36
2019-05-22T09:51:29.930Z,95.53
2019-05-22T09:54:02.361Z,95.66
2019-05-22T09:56:32.365Z,95.42
2019-05-22T09:59:02.674Z,95.56
2019-05-22T10:01:32.626Z,96.13
2019-05-22T10:04:02.622Z,95.74
2019-05-22T10:06:32.592Z,95.32
2019-05-22T10:09:02.606Z,94.64
2019-05-22T10:11:32.864Z,93.68
2019-05-22T10:14:04.153Z,93.72
2019-05-22T10:16:34.149Z,94.64
2019-05-22T10:19:04.778Z,94.40
2019-05-22T10:21:35.004Z,94.98
2019-05-22T10:24:05.753Z,94.66
2019-05-22T10:26:36.437Z,94.58
2019-05-22T10:29:06.524Z,94.41
2019-05-22T10:31:36.694Z,93.90
2019-05-22T10:34:06.683Z,94.46
2019-05-22T10:36:36.716Z,94.64
2019-05-22T10:39:07.613Z,94.44
2019-05-22T10:41:38.369Z,93.78
2019-05-22T10:44:08.470Z,93.52
2019-05-22T10:46:38.514Z,93.85
2019-05-22T10:49:08.540Z,92.47
2019-05-22T10:51:38.626Z,93.33
2019-05-22T10:54:08.688Z,92.23
2019-05-22T10:56:38.655Z,93.13
2019-05-22T10:59:08.678Z,92.70
2019-05-22T11:01:39.374Z,92.10
2019-05-22T11:04:10.188Z,91.83
2019-05-22T11:06:40.146Z,90.88
2019-05-22T11:09:11.842Z,91.09
2019-05-22T11:11:41.885Z,90.94
2019-05-22T11:14:12.337Z,89.65
2019-05-22T11:16:42.342Z,89.78
2019-05-22T11:19:12.445Z,89.63
2019-05-22T11:21:43.552Z,88.98
2019-05-22T11:24:14.203Z,89.50
2019-05-22T11:26:44.457Z,89.63
2019-05-22T11:29:14.767Z,89.37
2019-05-22T11:31:45.090Z,88.26
2019-05-22T11:34:15.055Z,89.74
2019-05-22T11:36:45.080Z,89.54
2019-05-22T11:39:16.973Z,88.20
2019-05-22T11:41:47.748Z,88.77
2019-05-22T11:44:18.045Z,88.50
2019-05-22T11:46:48.049Z,87.75
2019-05-22T11:49:18.416Z,86.83
2019-05-22T11:51:48.408Z,86.31
2019-05-22T11:54:18.519Z,86.66
2019-05-22T11:56:48.510Z,86.00
2019-05-22T11:59:18.873Z,85.95
2019-05-22T12:01:48.866Z,85.47
2019-05-22T12:04:19.265Z,85.37
2019-05-22T12:06:53.233Z,85.02
2019-05-22T12:09:21.961Z,84.69
2019-05-22T12:11:52.453Z,84.96
2019-05-22T12:14:23.096Z,84.59
2019-05-22T12:16:53.504Z,85.32
2019-05-22T12:19:23.834Z,85.05
2019-05-22T12:21:53.851Z,84.88
2019-05-22T12:24:28.467Z,84.43
2019-05-22T12:26:55.659Z,84.01
2019-05-22T12:29:27.134Z,82.90
2019-05-22T12:31:57.651Z,83.18
2019-05-22T12:34:27.655Z,83.50
2019-05-22T12:36:59.186Z,83.45
2019-05-22T12:39:29.662Z,82.78
2019-05-22T12:42:00.187Z,82.89
2019-05-22T12:44:30.164Z,83.27
2019-05-22T12:47:00.174Z,83.00
2019-05-22T12:49:31.615Z,82.13
2019-05-22T12:52:01.858Z,80.99
2019-05-22T12:54:46.188Z,81.01
2019-05-22T12:57:05.421Z,80.28
2019-05-22T12:59:35.683Z,79.86
2019-05-22T13:02:07.384Z,78.70
2019-05-22T13:04:37.944Z,79.07
2019-05-22T13:07:08.086Z,79.17
2019-05-22T13:09:38.159Z,79.14
2019-05-22T13:12:08.806Z,79.02
2019-05-22T13:14:38.789Z,78.93
2019-05-22T13:17:09.498Z,78.80
2019-05-22T13:19:40.753Z,79.78
2019-05-22T13:22:14.534Z,79.77
2019-05-22T13:24:44.913Z,79.00
2019-05-22T13:27:17.776Z,78.89
2019-05-22T13:29:49.425Z,78.29
2019-05-22T13:32:20.570Z,78.03
2019-05-22T13:34:51.453Z,78.53
2019-05-22T13:37:21.692Z,78.83
2019-05-22T13:39:52.266Z,78.42
2019-05-22T13:42:22.661Z,79.41
2019-05-22T13:44:53.436Z,79.32
2019-05-22T13:47:23.824Z,78.62
2019-05-22T13:49:54.287Z,79.47
2019-05-22T13:52:24.738Z,80.01
2019-05-22T13:54:55.138Z,79.66
2019-05-22T13:57:25.616Z,78.50
2019-05-22T13:59:55.678Z,78.60
2019-05-22T14:02:27.232Z,79.45
2019-05-22T14:04:57.476Z,79.09
2019-05-22T14:07:27.800Z,77.82
2019-05-22T14:09:58.711Z,77.44
2019-05-22T14:12:28.718Z,78.29
2019-05-22T14:14:58.774Z,76.54
2019-05-22T14:17:29.178Z,76.75
2019-05-22T14:19:59.370Z,77.18
2019-05-22T14:22:29.456Z,77.21
2019-05-22T14:24:59.539Z,77.04
2019-05-22T14:27:29.592Z,77.39
2019-05-22T14:29:59.588Z,76.25
2019-05-22T14:32:30.607Z,76.67
2019-05-22T14:35:01.525Z,77.35
2019-05-22T14:37:31.834Z,77.79
2019-05-22T14:40:02.253Z,77.81
2019-05-22T14:42:32.350Z,76.24
2019-05-22T14:45:02.566Z,76.04
2019-05-22T14:47:32.972Z,75.28
2019-05-22T14:50:03.410Z,73.17
2019-05-22T14:52:33.768Z,73.52
2019-05-22T14:55:03.868Z,73.99
2019-05-22T14:57:34.089Z,74.74
2019-05-22T15:00:05.005Z,73.36
2019-05-22T15:02:35.225Z,74.77
2019-05-22T15:05:06.306Z,76.09
2019-05-22T15:07:36.306Z,76.03
2019-05-22T15:10:06.682Z,75.69
2019-05-22T15:12:37.365Z,76.52
2019-05-22T15:15:07.551Z,76.26
2019-05-22T15:17:38.464Z,76.69
2019-05-22T15:20:09.448Z,75.83
2019-05-22T15:22:39.890Z,75.29
2019-05-22T15:25:11.201Z,74.31
2019-05-22T15:27:41.267Z,74.02
2019-05-22T15:30:11.713Z,72.73
2019-05-22T15:32:41.927Z,73.35
2019-05-22T15:35:12.916Z,72.62
2019-05-22T15:37:43.494Z,72.85
2019-05-22T15:40:13.619Z,72.93
2019-05-22T15:42:45.353Z,72.95
2019-05-22T15:45:17.482Z,71.80
2019-05-22T15:47:55.452Z,72.25
2019-05-22T15:50:26.592Z,71.53
2019-05-22T15:52:59.742Z,70.99
2019-05-22T15:55:31.317Z,70.66
2019-05-22T15:58:01.707Z,70.00
2019-05-22T16:00:33.869Z,68.43
2019-05-22T16:03:13.644Z,70.09
2019-05-22T16:05:44.270Z,69.93
2019-05-22T16:08:14.968Z,70.46
2019-05-22T16:10:46.660Z,70.00
2019-05-22T16:13:18.750Z,70.17
2019-05-22T16:15:50.216Z,70.11
2019-05-22T16:18:22.227Z,70.77
2019-05-22T16:20:53.253Z,70.45
2019-05-22T16:23:23.811Z,70.09
2019-05-22T16:25:54.032Z,70.76
2019-05-22T16:28:25.544Z,70.00
2019-05-22T16:30:55.993Z,70.14
2019-05-22T16:33:26.467Z,70.51
2019-05-22T16:35:56.819Z,70.89
2019-05-22T16:38:27.296Z,71.09
2019-05-22T16:40:57.293Z,70.44
2019-05-22T16:43:47.299Z,71.37
2019-05-22T16:46:00.689Z,71.66
2019-05-22T16:48:30.680Z,70.80
2019-05-22T16:51:01.351Z,70.74
2019-05-22T16:53:32.074Z,70.69
2019-05-22T16:56:02.982Z,71.99
2019-05-22T16:58:32.954Z,71.73
2019-05-22T17:01:05.608Z,71.45
2019-05-22T17:03:35.991Z,70.32
2019-05-22T17:06:06.178Z,70.34
2019-05-22T17:08:36.194Z,72.10
2019-05-22T17:11:07.781Z,71.46
2019-05-22T17:13:38.622Z,71.76
2019-05-22T17:16:09.266Z,72.61
2019-05-22T17:18:47.753Z,72.39
2019-05-22T17:21:11.355Z,72.08
2019-05-22T17:23:41.489Z,72.18
2019-05-22T17:26:11.627Z,71.81
2019-05-22T17:28:41.727Z,72.30
2019-05-22T17:31:11.996Z,72.47
2019-05-22T17:33:42.030Z,72.04
2019-05-22T17:36:12.053Z,72.47
2019-05-22T17:38:42.173Z,72.57
2019-05-22T17:41:12.622Z,72.26
2019-05-22T17:43:43.635Z,72.19
2019-05-22T17:46:15.123Z,72.37
2019-05-22T17:48:45.391Z,72.08
2019-05-22T17:51:15.785Z,72.48
2019-05-22T17:53:45.789Z,72.22
2019-05-22T17:56:15.824Z,71.92
2019-05-22T17:58:45.996Z,72.53
2019-05-22T18:01:18.247Z,72.13
2019-05-22T18:03:48.744Z,72.30
2019-05-22T18:06:19.412Z,72.96
2019-05-22T18:08:50.059Z,72.03
2019-05-22T18:11:20.149Z,72.38
2019-05-22T18:14:03.950Z,71.91
2019-05-22T18:16:35.135Z,72.23
2019-05-22T18:19:07.056Z,72.25
2019-05-22T18:21:38.762Z,73.23
2019-05-22T18:24:11.186Z,73.26
2019-05-22T18:26:41.309Z,73.54
2019-05-22T18:29:11.421Z,73.48
2019-05-22T18:31:41.531Z,71.99
2019-05-22T18:34:11.587Z,72.48
2019-05-22T18:36:41.587Z,73.36
2019-05-22T18:39:13.270Z,72.48
2019-05-22T18:41:43.310Z,72.67
2019-05-22T18:44:13.663Z,73.70
2019-05-22T18:46:44.069Z,73.04
2019-05-22T18:49:14.066Z,73.03
2019-05-22T18:51:44.422Z,74.14
2019-05-22T18:54:14.439Z,74.36
2019-05-22T18:56:44.907Z,74.78
2019-05-22T18:59:14.896Z,74.82
2019-05-22T19:01:44.998Z,75.73
2019-05-22T19:04:15.136Z,74.90
2019-05-22T19:06:45.137Z,75.09
2019-05-22T19:09:16.848Z,75.07
2019-05-22T19:11:46.861Z,76.27
2019-05-22T19:14:16.871Z,77.28
2019-05-22T19:16:47.177Z,76.54
2019-05-22T19:19:17.189Z,78.49
2019-05-22T19:21:47.271Z,77.41
2019-05-22T19:24:18.716Z,76.80
2019-05-22T19:26:48.815Z,78.75
2019-05-22T19:29:18.818Z,78.88
2019-05-22T19:31:48.975Z,80.04
2019-05-22T19:34:18.986Z,79.11
2019-05-22T19:36:49.018Z,78.15
2019-05-22T19:39:19.124Z,79.67
2019-05-22T19:42:01.466Z,80.26
2019-05-22T19:44:21.284Z,78.85
2019-05-22T19:46:51.362Z,78.35
2019-05-22T19:49:21.503Z,79.57
2019-05-22T19:51:52.083Z,78.59
2019-05-22T19:54:22.150Z,78.21
2019-05-22T19:56:52.167Z,78.03
2019-05-22T19:59:22.309Z,77.20
2019-05-22T20:01:52.439Z,78.89
2019-05-22T20:04:22.883Z,79.69
2019-05-22T20:06:53.362Z,77.85
2019-05-22T20:09:23.684Z,79.43
2019-05-22T20:11:53.691Z,80.02
2019-05-22T20:14:24.023Z,77.52
2019-05-22T20:16:54.503Z,79.05
2019-05-22T20:19:24.550Z,78.80
2019-05-22T20:21:54.978Z,78.09
2019-05-22T20:24:25.478Z,78.70
2019-05-22T20:26:55.482Z,77.81
2019-05-22T20:29:25.656Z,77.10
2019-05-22T20:31:55.963Z,77.59
2019-05-22T20:34:26.026Z,76.94
2019-05-22T20:36:56.348Z,76.89
2019-05-22T20:39:29.586Z,76.53
2019-05-22T20:41:58.198Z,76.69
2019-05-22T20:44:28.567Z,76.55
2019-05-22T20:46:58.733Z,76.51
2019-05-22T20:49:29.128Z,76.64
2019-05-22T20:51:59.159Z,76.42
2019-05-22T20:54:30.141Z,76.52
2019-05-22T20:57:03.114Z,76.45
2019-05-22T20:59:34.898Z,76.36
2019-05-22T21:02:05.390Z,76.17
2019-05-22T21:04:37.139Z,76.22
2019-05-22T21:07:09.344Z,76.03
2019-05-22T21:09:39.866Z,75.99
2019-05-22T21:12:11.886Z,76.18
2019-05-22T21:14:42.753Z,76.06
2019-05-22T21:17:14.470Z,76.21
2019-05-22T21:19:46.528Z,76.23
2019-05-22T21:22:19.768Z,75.95
2019-05-22T21:24:49.911Z,75.92
2019-05-22T21:27:20.178Z,75.76
2019-05-22T21:29:50.491Z,75.85
2019-05-22T21:32:22.264Z,75.74
2019-05-22T21:34:52.490Z,75.67
2019-05-22T21:37:22.573Z,75.59
2019-05-22T21:39:52.684Z,75.53
2019-05-22T21:42:23.250Z,75.67
2019-05-22T21:44:53.597Z,75.68
2019-05-22T21:47:23.586Z,75.69
2019-05-22T21:49:53.676Z,75.61
2019-05-22T21:52:23.959Z,75.42
2019-05-22T21:54:54.244Z,75.39
2019-05-22T21:57:25.494Z,75.26
2019-05-22T21:59:55.899Z,75.31
2019-05-22T22:02:33.407Z,75.25
2019-05-22T22:05:04.573Z,75.11
2019-05-22T22:07:35.156Z,75.09
2019-05-22T22:10:07.721Z,75.29
2019-05-22T22:12:38.208Z,75.17
2019-05-22T22:15:08.652Z,74.96
2019-05-22T22:17:39.087Z,75.12
2019-05-22T22:20:09.837Z,75.22
2019-05-22T22:22:39.950Z,75.03
2019-05-22T22:25:11.146Z,74.92
2019-05-22T22:27:41.662Z,74.91
2019-05-22T22:30:26.821Z,74.70
2019-05-22T22:32:58.735Z,75.14
2019-05-22T22:35:29.242Z,74.81
2019-05-22T22:38:00.882Z,74.94
2019-05-22T22:40:32.645Z,74.66
2019-05-22T22:43:05.617Z,74.74
2019-05-22T22:45:43.691Z,74.58
2019-05-22T22:48:15.796Z,74.63
2019-05-22T22:50:46.557Z,74.42
2019-05-22T22:53:17.034Z,74.37
2019-05-22T22:55:48.255Z,74.48
2019-05-22T22:58:18.930Z,74.68
2019-05-22T23:00:49.439Z,74.63
2019-05-22T23:03:21.885Z,74.58
2019-05-22T23:05:52.708Z,74.55
2019-05-22T23:08:26.338Z,74.36
2019-05-22T23:10:56.478Z,74.26
2019-05-22T23:13:27.824Z,74.45
2019-05-22T23:15:57.965Z,74.47
2019-05-22T23:19:15.885Z,74.41
2019-05-22T23:21:47.769Z,74.25
2019-05-22T23:24:19.364Z,74.42
2019-05-22T23:26:49.431Z,74.49
2019-05-22T23:29:19.556Z,74.23
2019-05-22T23:31:49.724Z,74.42
2019-05-22T23:34:20.542Z,74.59
2019-05-22T23:36:50.601Z,74.67
2019-05-22T23:39:21.431Z,74.60
2019-05-22T23:41:51.705Z,74.42
2019-05-22T23:44:23.375Z,74.41
2019-05-22T23:46:54.230Z,74.42
2019-05-22T23:49:24.387Z,74.70
2019-05-22T23:51:54.628Z,74.70
2019-05-22T23:54:24.609Z,74.43
2019-05-22T23:56:55.766Z,74.36
2019-05-22T23:59:27.389Z,74.58
